الصفحة الرئيسية
METAR-TAF:

METAR-TAF

مطار :

Cobar, أستراليا

دائرة عرض: 31-32-18S, خط طول: 145-47-36E, ارتفاع: 221 متر

مراقبة الطقس الحالي

تاريخ ووقت الإصدار 1ساعة و 16 دقيقة قبل الساعة 19:00UTC
رياح هادئة
درجة الحرارة 3°درجة مئوية
الرطوبة 87%
ضغط 1022 hPa
الرؤية 10 كم أو أكثر

METAR: YCBA 251900Z AUTO 00000KT 9999 // NCD 03/01 Q1022

زمن: 06:16 (20:16 UTC)


TAF: مفقودة

أرصاد الطقس والتوقعات من أكثر من 4000 مطار (تقارير الطقس للمطار METAR والتنبؤ بالطقس بالمطارTAF).

المحطات المتاحة هي النقط الصفراء والحمراء على الخريطة.

حرك المؤشر فوق النقطة لمعرفة اسم المحطة.

ثم انقر لمعرفة أرصاد وتوقعات الطقس.

لتغيير الخارطة: اضغط على الأزرار الخضراء مع رمز الصليب الأسود للتكبير. على الزر الأخضر مع شرطة للتصغير، أو على الأسهم الخضراء للخرائط المجاورة.


METAR-TAF: